CheckWX is a tool to help pilots better visualize weather data.  It is not intended as a substitute for an official pre-flight weather briefing.

18:09:14 UTC

KCDW METAR
Essex County Airport
Caldwell, New Jersey, USA
Current

1 hour ago

KCDW 071653Z VRB06KT 10SM CLR 18/M02 A2989 RMK AO2 SLP127 T01831017
Observed
Apr-7 @ 16:53 UTC
Wind
  • Variable at 6 KTS
Visibility
Flight Rules
VFR
Cloud Levels
  • Clear skies
Temperature
18°C / 64°F
Dewpoint
-2°C / 28°F
Humidity
26%
Altimeter
29.89" Hg
Pressure
1012.22 hPa
Previous

2 hours ago

KCDW 071553Z 15005KT 10SM FEW120 17/M01 A2993 RMK AO2 SLP141 T01671011
Observed
Apr-7 @ 15:53 UTC
Wind
  • 150° at 5 KTS
Visibility
Flight Rules
VFR
Cloud Levels
  • Few at 12,000' AGL
Temperature
17°C / 63°F
Dewpoint
-1°C / 30°F
Humidity
30%
Altimeter
29.93" Hg
Pressure
1013.52 hPa
Previous

3 hours ago

KCDW 071453Z 18003KT 10SM BKN120 15/M01 A2996 RMK AO2 SLP151 T01501011 58009
Observed
Apr-7 @ 14:53 UTC
Wind
  • 180° at 3 KTS
Visibility
Flight Rules
VFR
Cloud Levels
  • Broken at 12,000' AGL
Temperature
15°C / 59°F
Dewpoint
-1°C / 30°F
Humidity
34%
Altimeter
29.96" Hg
Pressure
1014.52 hPa